createdAt,value
2022-08-30T00:02:01.010Z,3.10
2022-08-30T00:04:27.507Z,2.78
2022-08-30T00:06:54.085Z,3.08
2022-08-30T00:09:20.604Z,2.85
2022-08-30T00:11:46.991Z,2.95
2022-08-30T00:14:13.433Z,3.20
2022-08-30T00:16:39.875Z,3.03
2022-08-30T00:19:06.446Z,3.05
2022-08-30T00:21:32.891Z,3.10
2022-08-30T00:23:59.371Z,3.80
2022-08-30T00:26:25.810Z,3.20
2022-08-30T00:28:52.236Z,3.03
2022-08-30T00:31:18.755Z,3.00
2022-08-30T00:33:45.224Z,3.13
2022-08-30T00:36:11.705Z,3.22
2022-08-30T00:38:38.121Z,3.22
2022-08-30T00:41:04.597Z,2.65
2022-08-30T00:43:36.888Z,2.90
2022-08-30T00:46:08.124Z,2.97
2022-08-30T00:48:40.745Z,2.60
2022-08-30T00:51:10.200Z,3.05
2022-08-30T00:53:45.599Z,3.03
2022-08-30T00:56:13.404Z,3.75
2022-08-30T00:58:45.419Z,3.13
2022-08-30T01:01:12.891Z,2.90
2022-08-30T01:03:39.638Z,2.67
2022-08-30T01:06:07.587Z,2.83
2022-08-30T01:08:35.329Z,2.65
2022-08-30T01:11:04.071Z,3.00
2022-08-30T01:13:32.292Z,3.13
2022-08-30T01:16:00.299Z,2.85
2022-08-30T01:18:28.934Z,2.95
2022-08-30T01:21:32.592Z,3.40
2022-08-30T01:24:00.604Z,3.00
2022-08-30T01:26:29.677Z,3.20
2022-08-30T01:29:02.183Z,2.97
2022-08-30T01:31:28.686Z,3.38
2022-08-30T01:33:55.084Z,2.80
2022-08-30T01:36:21.949Z,2.80
2022-08-30T01:38:52.870Z,2.78
2022-08-30T01:41:21.207Z,3.20
2022-08-30T01:43:49.426Z,2.72
2022-08-30T01:46:17.858Z,3.20
2022-08-30T01:48:50.261Z,3.05
2022-08-30T01:51:22.633Z,2.75
2022-08-30T01:53:49.106Z,3.17
2022-08-30T01:56:15.684Z,3.20
2022-08-30T01:58:43.313Z,3.33
2022-08-30T02:01:12.773Z,2.90
2022-08-30T02:03:41.571Z,3.28
2022-08-30T02:06:16.948Z,3.47
2022-08-30T02:08:43.729Z,2.90
2022-08-30T02:11:11.596Z,2.88
2022-08-30T02:13:39.211Z,3.13
2022-08-30T02:16:11.390Z,2.85
2022-08-30T02:18:39.330Z,2.95
2022-08-30T02:21:07.103Z,3.22
2022-08-30T02:23:33.537Z,3.00
2022-08-30T02:26:00.033Z,2.80
2022-08-30T02:28:26.487Z,3.30
2022-08-30T02:30:53.689Z,3.42
2022-08-30T02:33:20.573Z,3.40
2022-08-30T02:35:47.049Z,2.92
2022-08-30T02:38:13.533Z,2.78
2022-08-30T02:40:40.042Z,3.25
2022-08-30T02:43:07.254Z,3.13
2022-08-30T02:45:33.960Z,3.08
2022-08-30T02:48:00.423Z,3.13
2022-08-30T02:50:27.098Z,3.47
2022-08-30T02:52:54.349Z,3.13
2022-08-30T02:55:21.909Z,3.47
2022-08-30T02:57:48.357Z,3.17
2022-08-30T03:00:19.387Z,4.25
2022-08-30T03:02:46.814Z,3.90
2022-08-30T03:05:14.903Z,3.20
2022-08-30T03:07:42.541Z,2.97
2022-08-30T03:10:10.120Z,3.30
2022-08-30T03:12:36.574Z,2.90
2022-08-30T03:15:05.205Z,3.20
2022-08-30T03:17:31.603Z,3.17
2022-08-30T03:20:00.651Z,3.15
2022-08-30T03:22:27.060Z,3.10
2022-08-30T03:24:53.530Z,3.25
2022-08-30T03:27:19.933Z,3.00
2022-08-30T03:29:46.391Z,3.22
2022-08-30T03:32:12.885Z,3.00
2022-08-30T03:34:40.107Z,2.80
2022-08-30T03:37:06.517Z,3.00
2022-08-30T03:39:33.019Z,3.08
2022-08-30T03:41:59.434Z,3.42
2022-08-30T03:44:25.849Z,2.95
2022-08-30T03:46:52.620Z,3.45
2022-08-30T03:49:20.512Z,2.83
2022-08-30T03:51:47.483Z,3.10
2022-08-30T03:54:14.572Z,3.30
2022-08-30T03:56:41.201Z,3.50
2022-08-30T03:59:07.693Z,3.15
2022-08-30T04:01:34.222Z,3.22
2022-08-30T04:04:00.675Z,3.55
2022-08-30T04:06:28.094Z,3.33
2022-08-30T04:08:55.069Z,3.08
2022-08-30T04:11:22.093Z,3.15
2022-08-30T04:13:51.732Z,3.15
2022-08-30T04:16:19.649Z,3.28
2022-08-30T04:18:46.122Z,3.28
2022-08-30T04:21:14.212Z,3.05
2022-08-30T04:23:40.743Z,3.53
2022-08-30T04:26:07.780Z,3.83
2022-08-30T04:28:35.233Z,3.25
2022-08-30T04:31:12.240Z,2.78
2022-08-30T04:33:39.100Z,3.13
2022-08-30T04:36:07.228Z,4.13
2022-08-30T04:38:35.499Z,3.40
2022-08-30T04:41:02.557Z,3.53
2022-08-30T04:43:29.411Z,4.32
2022-08-30T04:45:57.881Z,3.45
2022-08-30T04:48:24.334Z,3.10
2022-08-30T04:50:51.064Z,4.10
2022-08-30T04:53:17.705Z,3.10
2022-08-30T04:55:44.533Z,3.50
2022-08-30T04:58:11.375Z,3.70
2022-08-30T05:00:38.020Z,3.05
2022-08-30T05:03:04.464Z,3.05
2022-08-30T05:05:40.362Z,3.47
2022-08-30T05:08:11.531Z,3.20
2022-08-30T05:10:43.642Z,3.47
2022-08-30T05:13:11.354Z,3.30
2022-08-30T05:15:39.673Z,3.22
2022-08-30T05:18:11.349Z,8.77
2022-08-30T05:20:40.875Z,7.60
2022-08-30T05:23:07.658Z,6.00
2022-08-30T05:25:38.392Z,3.88
2022-08-30T05:28:05.269Z,3.80
2022-08-30T05:30:36.646Z,4.00
2022-08-30T05:33:03.239Z,4.43
2022-08-30T05:35:29.870Z,4.82
2022-08-30T05:37:56.411Z,4.40
2022-08-30T05:40:23.435Z,4.45
2022-08-30T05:42:51.070Z,4.53
2022-08-30T05:45:17.719Z,4.78
2022-08-30T05:47:44.264Z,4.72
2022-08-30T05:50:11.134Z,4.53
2022-08-30T05:52:40.136Z,4.30
2022-08-30T05:55:07.722Z,4.45
2022-08-30T05:57:39.008Z,4.43
2022-08-30T06:00:09.719Z,4.38
2022-08-30T06:02:36.170Z,4.55
2022-08-30T06:05:05.063Z,4.13
2022-08-30T06:07:32.215Z,4.40
2022-08-30T06:09:58.697Z,4.28
2022-08-30T06:12:25.735Z,4.60
2022-08-30T06:14:52.175Z,4.10
2022-08-30T06:17:20.094Z,4.88
2022-08-30T06:19:46.517Z,4.18
2022-08-30T06:22:12.937Z,4.30
2022-08-30T06:24:56.462Z,5.05
2022-08-30T06:27:24.120Z,4.53
2022-08-30T06:29:51.956Z,4.38
2022-08-30T06:32:18.657Z,4.55
2022-08-30T06:34:45.116Z,4.47
2022-08-30T06:37:11.505Z,3.85
2022-08-30T06:39:37.939Z,4.32
2022-08-30T06:42:04.609Z,4.05
2022-08-30T06:44:31.060Z,3.72
2022-08-30T06:46:57.570Z,3.85
2022-08-30T06:49:24.192Z,3.72
2022-08-30T06:51:51.459Z,3.85
2022-08-30T06:54:18.056Z,3.65
2022-08-30T06:56:57.725Z,3.80
2022-08-30T06:59:25.931Z,3.95
2022-08-30T07:01:53.542Z,4.35
2022-08-30T07:04:20.010Z,3.72
2022-08-30T07:06:46.433Z,3.70
2022-08-30T07:09:12.826Z,3.72
2022-08-30T07:11:40.965Z,3.15
2022-08-30T07:14:07.537Z,4.13
2022-08-30T07:16:34.645Z,4.15
2022-08-30T07:19:03.087Z,3.47
2022-08-30T07:21:39.800Z,3.45
2022-08-30T07:24:08.740Z,4.38
2022-08-30T07:26:41.646Z,4.20
2022-08-30T07:29:09.557Z,3.85
2022-08-30T07:31:37.544Z,3.50
2022-08-30T07:34:05.632Z,4.78
2022-08-30T07:36:32.224Z,3.63
2022-08-30T07:38:59.014Z,3.50
2022-08-30T07:41:31.633Z,3.55
2022-08-30T07:43:58.640Z,3.72
2022-08-30T07:46:27.414Z,3.22
2022-08-30T07:48:55.187Z,3.65
2022-08-30T07:51:24.920Z,3.42
2022-08-30T07:53:52.788Z,3.35
2022-08-30T07:56:19.434Z,3.28
2022-08-30T07:58:45.839Z,3.00
2022-08-30T08:01:13.501Z,3.58
2022-08-30T08:03:41.734Z,3.13
2022-08-30T08:06:10.095Z,3.28
2022-08-30T08:08:39.714Z,3.70
2022-08-30T08:11:08.643Z,2.85
2022-08-30T08:13:44.657Z,3.40
2022-08-30T08:16:23.004Z,3.45
2022-08-30T08:18:49.774Z,3.47
2022-08-30T08:21:16.612Z,4.22
2022-08-30T08:23:43.051Z,3.50
2022-08-30T08:26:09.704Z,3.20
2022-08-30T08:28:36.147Z,3.45
2022-08-30T08:31:03.519Z,3.97
2022-08-30T08:33:30.700Z,3.90
2022-08-30T08:35:57.189Z,2.90
2022-08-30T08:38:23.862Z,3.33
2022-08-30T08:41:05.594Z,3.72
2022-08-30T08:43:35.821Z,2.83
2022-08-30T08:46:12.462Z,3.85
2022-08-30T08:48:58.611Z,3.13
2022-08-30T08:51:49.454Z,3.17
2022-08-30T08:54:22.821Z,3.72
2022-08-30T08:56:49.569Z,2.83
2022-08-30T08:59:17.078Z,3.72
2022-08-30T09:01:43.608Z,3.08
2022-08-30T09:04:17.573Z,2.97
2022-08-30T09:07:09.004Z,3.67
2022-08-30T09:09:38.507Z,4.45
2022-08-30T09:12:06.564Z,4.07
2022-08-30T09:14:44.320Z,3.42
2022-08-30T09:17:15.856Z,4.20
2022-08-30T09:19:51.398Z,3.20
2022-08-30T09:22:26.236Z,3.95
2022-08-30T09:25:00.261Z,3.58
2022-08-30T09:27:36.823Z,3.70
2022-08-30T09:33:03.350Z,3.92
2022-08-30T09:38:06.704Z,3.17
2022-08-30T09:40:36.197Z,3.60
2022-08-30T09:43:31.132Z,3.08
2022-08-30T09:46:00.437Z,3.28
2022-08-30T09:48:27.114Z,3.58
2022-08-30T09:51:02.161Z,3.58
2022-08-30T09:53:35.239Z,3.67
2022-08-30T09:56:10.144Z,3.17
2022-08-30T09:59:11.994Z,3.63
2022-08-30T10:01:52.017Z,3.08
2022-08-30T10:04:45.984Z,3.67
2022-08-30T10:07:18.742Z,2.88
2022-08-30T10:10:02.502Z,3.00
2022-08-30T10:12:42.218Z,2.88
2022-08-30T10:15:08.838Z,3.05
2022-08-30T10:17:52.321Z,3.10
2022-08-30T10:20:30.351Z,2.90
2022-08-30T10:23:06.255Z,2.90
2022-08-30T10:25:39.036Z,3.00
2022-08-30T10:28:16.976Z,3.50
2022-08-30T10:30:54.586Z,3.05
2022-08-30T10:33:26.877Z,2.78
2022-08-30T10:36:02.826Z,2.67
2022-08-30T10:38:38.888Z,3.22
2022-08-30T10:41:14.456Z,3.30
2022-08-30T10:43:59.843Z,2.35
2022-08-30T10:47:11.618Z,3.22
2022-08-30T10:49:45.217Z,3.05
2022-08-30T10:52:12.246Z,2.90
2022-08-30T10:54:46.961Z,2.80
2022-08-30T10:57:14.681Z,3.30
2022-08-30T10:59:46.796Z,2.38
2022-08-30T11:02:34.649Z,3.15
2022-08-30T11:05:21.399Z,2.95
2022-08-30T11:08:07.507Z,3.20
2022-08-30T11:11:16.843Z,3.13
2022-08-30T11:13:45.574Z,3.20
2022-08-30T11:16:15.806Z,2.28
2022-08-30T11:18:44.729Z,3.55
2022-08-30T11:21:17.388Z,4.18
2022-08-30T11:23:59.421Z,2.58
2022-08-30T11:26:46.139Z,2.88
2022-08-30T11:29:42.166Z,2.70
2022-08-30T11:32:17.213Z,2.67
2022-08-30T11:34:46.582Z,3.30
2022-08-30T11:37:35.849Z,2.72
2022-08-30T11:40:13.273Z,3.00
2022-08-30T11:42:49.285Z,3.97
2022-08-30T11:45:26.790Z,2.95
2022-08-30T11:47:59.625Z,3.20
2022-08-30T11:51:01.502Z,3.07
2022-08-30T11:53:55.648Z,4.40
2022-08-30T11:56:44.282Z,2.60
2022-08-30T11:59:26.064Z,2.20
2022-08-30T12:01:52.585Z,2.55
2022-08-30T12:04:19.728Z,2.70
2022-08-30T12:07:04.323Z,3.10
2022-08-30T12:09:32.902Z,2.35
2022-08-30T12:12:05.485Z,2.67
2022-08-30T12:14:41.518Z,2.53
2022-08-30T12:17:41.830Z,2.40
2022-08-30T12:20:29.382Z,2.53
2022-08-30T12:22:57.010Z,5.13
2022-08-30T12:25:31.154Z,3.97
2022-08-30T12:28:22.472Z,2.40
2022-08-30T12:30:49.856Z,2.22
2022-08-30T12:33:29.588Z,2.58
2022-08-30T12:35:59.202Z,2.55
2022-08-30T12:38:27.774Z,2.75
2022-08-30T12:40:57.979Z,2.15
2022-08-30T12:43:40.181Z,2.70
2022-08-30T12:46:12.636Z,2.40
2022-08-30T12:48:42.888Z,2.38
2022-08-30T12:51:25.997Z,2.08
2022-08-30T12:53:52.654Z,2.20
2022-08-30T12:56:35.071Z,2.00
2022-08-30T12:59:07.483Z,2.50
2022-08-30T13:01:35.782Z,2.28
2022-08-30T13:04:22.948Z,3.38
2022-08-30T13:06:53.573Z,3.58
2022-08-30T13:09:35.641Z,2.25
2022-08-30T13:12:24.124Z,9.88
2022-08-30T13:14:53.581Z,3.30
2022-08-30T13:17:33.490Z,2.53
2022-08-30T13:20:22.317Z,2.40
2022-08-30T13:23:07.041Z,2.22
2022-08-30T13:25:35.161Z,2.25
2022-08-30T13:28:08.450Z,2.45
2022-08-30T13:30:35.730Z,2.13
2022-08-30T13:33:02.601Z,1.98
2022-08-30T13:35:30.766Z,2.80
2022-08-30T13:37:59.964Z,2.78
2022-08-30T13:40:26.493Z,2.10
2022-08-30T13:42:53.025Z,2.45
2022-08-30T13:48:07.267Z,2.15
2022-08-30T13:50:33.822Z,2.72
2022-08-30T13:53:00.359Z,3.22
2022-08-30T13:55:26.847Z,2.50
2022-08-30T13:57:55.141Z,2.55
2022-08-30T14:00:23.725Z,2.47
2022-08-30T14:02:55.921Z,2.20
2022-08-30T14:11:05.019Z,3.08
2022-08-30T14:13:31.621Z,2.45
2022-08-30T14:18:47.906Z,2.63
2022-08-30T14:21:15.917Z,2.60
2022-08-30T14:23:42.533Z,2.55
2022-08-30T14:26:18.488Z,2.17
2022-08-30T14:28:45.003Z,2.55
2022-08-30T14:31:11.953Z,2.35
2022-08-30T14:33:40.204Z,2.50
2022-08-30T14:36:12.415Z,2.88
2022-08-30T14:38:42.677Z,2.50
2022-08-30T14:41:10.875Z,2.47
2022-08-30T14:43:40.225Z,2.78
2022-08-30T14:46:08.892Z,3.45
2022-08-30T14:48:38.036Z,3.25
2022-08-30T14:51:17.109Z,4.93
2022-08-30T14:53:44.445Z,6.53
2022-08-30T14:56:14.333Z,2.40
2022-08-30T14:58:40.986Z,2.00
2022-08-30T15:01:12.464Z,2.63
2022-08-30T15:03:40.301Z,6.93
2022-08-30T15:06:07.432Z,3.45
2022-08-30T15:08:35.505Z,3.10
2022-08-30T15:11:10.928Z,3.45
2022-08-30T15:13:39.256Z,3.67
2022-08-30T15:16:12.704Z,3.90
2022-08-30T15:21:09.201Z,4.28
2022-08-30T15:23:36.656Z,3.50
2022-08-30T15:26:03.397Z,4.00
2022-08-30T15:28:30.143Z,4.28
2022-08-30T15:30:56.659Z,4.00
2022-08-30T15:33:23.692Z,4.00
2022-08-30T15:35:52.052Z,4.25
2022-08-30T15:38:19.464Z,3.83
2022-08-30T15:40:50.040Z,4.35
2022-08-30T15:43:16.717Z,3.95
2022-08-30T15:45:43.192Z,3.88
2022-08-30T15:48:09.870Z,5.22
2022-08-30T15:50:36.396Z,4.22
2022-08-30T15:53:03.547Z,4.55
2022-08-30T15:55:29.958Z,4.75
2022-08-30T15:57:56.394Z,4.55
2022-08-30T16:00:22.769Z,4.43
2022-08-30T16:02:50.727Z,4.32
2022-08-30T16:05:21.238Z,4.28
2022-08-30T16:07:47.827Z,5.38
2022-08-30T16:10:15.208Z,4.90
2022-08-30T16:12:41.747Z,4.63
2022-08-30T16:15:08.803Z,5.03
2022-08-30T16:17:35.958Z,4.65
2022-08-30T16:20:03.765Z,4.25
2022-08-30T16:22:30.748Z,4.30
2022-08-30T16:24:57.141Z,4.88
2022-08-30T16:27:24.928Z,4.60
2022-08-30T16:29:51.347Z,4.50
2022-08-30T16:32:18.303Z,4.47
2022-08-30T16:34:44.768Z,4.63
2022-08-30T16:37:11.137Z,5.07
2022-08-30T16:39:37.569Z,4.93
2022-08-30T16:42:06.780Z,5.05
2022-08-30T16:44:34.127Z,4.95
2022-08-30T16:47:01.267Z,4.68
2022-08-30T16:49:27.764Z,4.30
2022-08-30T16:51:54.592Z,4.80
2022-08-30T16:54:21.643Z,5.32
2022-08-30T16:56:48.202Z,4.60
2022-08-30T16:59:16.715Z,4.03
2022-08-30T17:01:44.088Z,4.68
2022-08-30T17:04:13.862Z,5.13
2022-08-30T17:06:45.135Z,5.07
2022-08-30T17:09:12.355Z,4.50
2022-08-30T17:11:40.222Z,4.43
2022-08-30T17:14:07.436Z,4.20
2022-08-30T17:16:36.009Z,4.68
2022-08-30T17:19:06.316Z,4.75
2022-08-30T17:21:33.155Z,3.85
2022-08-30T17:24:02.128Z,4.05
2022-08-30T17:26:34.608Z,3.72
2022-08-30T17:29:02.179Z,3.35
2022-08-30T17:31:31.405Z,3.72
2022-08-30T17:34:03.460Z,3.92
2022-08-30T17:36:35.610Z,4.15
2022-08-30T17:39:10.456Z,4.43
2022-08-30T17:41:38.188Z,3.22
2022-08-30T17:44:05.052Z,3.42
2022-08-30T17:46:32.965Z,4.30
2022-08-30T17:49:01.409Z,3.50
2022-08-30T17:51:29.727Z,3.42
2022-08-30T17:53:57.036Z,3.33
2022-08-30T17:56:24.285Z,3.42
2022-08-30T17:59:00.836Z,3.80
2022-08-30T18:01:28.219Z,3.58
2022-08-30T18:04:01.618Z,2.97
2022-08-30T18:06:29.145Z,3.95
2022-08-30T18:08:56.173Z,3.10
2022-08-30T18:11:22.959Z,3.30
2022-08-30T18:13:49.821Z,3.60
2022-08-30T18:16:16.570Z,3.45
2022-08-30T18:18:49.396Z,3.80
2022-08-30T18:21:19.579Z,3.72
2022-08-30T18:23:49.967Z,2.78
2022-08-30T18:26:17.448Z,3.50
2022-08-30T18:28:44.838Z,3.90
2022-08-30T18:31:11.456Z,3.70
2022-08-30T18:33:37.850Z,4.03
2022-08-30T18:36:05.909Z,3.83
2022-08-30T18:38:32.866Z,3.47
2022-08-30T18:41:06.456Z,3.95
2022-08-30T18:43:33.952Z,3.72
2022-08-30T18:46:06.387Z,3.45
2022-08-30T18:48:33.624Z,3.95
2022-08-30T18:51:01.992Z,3.88
2022-08-30T18:53:29.563Z,3.25
2022-08-30T18:55:56.466Z,3.67
2022-08-30T18:58:22.961Z,3.90
2022-08-30T19:00:49.663Z,3.30
2022-08-30T19:03:18.274Z,3.38
2022-08-30T19:05:45.607Z,3.17
2022-08-30T19:08:13.423Z,3.55
2022-08-30T19:10:39.941Z,3.25
2022-08-30T19:13:06.797Z,3.38
2022-08-30T19:15:34.923Z,3.90
2022-08-30T19:18:03.118Z,3.05
2022-08-30T19:20:43.632Z,3.40
2022-08-30T19:23:10.407Z,3.47
2022-08-30T19:25:38.799Z,3.63
2022-08-30T19:28:05.616Z,3.95
2022-08-30T19:30:32.492Z,3.88
2022-08-30T19:32:58.917Z,4.00
2022-08-30T19:35:26.289Z,3.63
2022-08-30T19:37:52.737Z,3.40
2022-08-30T19:40:20.806Z,3.45
2022-08-30T19:42:48.338Z,3.60
2022-08-30T19:45:17.786Z,3.67
2022-08-30T19:47:45.310Z,3.63
2022-08-30T19:50:14.260Z,4.05
2022-08-30T19:52:40.680Z,4.05
2022-08-30T19:55:09.136Z,4.00
2022-08-30T19:57:36.193Z,3.78
2022-08-30T20:00:03.826Z,3.95
2022-08-30T20:02:30.282Z,3.95
2022-08-30T20:04:57.986Z,4.35
2022-08-30T20:07:27.510Z,3.95
2022-08-30T20:09:54.908Z,4.45
2022-08-30T20:12:21.337Z,3.58
2022-08-30T20:14:48.513Z,3.53
2022-08-30T20:17:15.404Z,4.18
2022-08-30T20:19:42.071Z,4.13
2022-08-30T20:22:09.344Z,4.32
2022-08-30T20:27:08.042Z,4.45
2022-08-30T20:29:34.569Z,3.75
2022-08-30T20:32:03.162Z,4.50
2022-08-30T20:34:29.791Z,4.10
2022-08-30T20:36:57.245Z,4.53
2022-08-30T20:39:24.451Z,4.57
2022-08-30T20:41:51.549Z,4.20
2022-08-30T20:44:18.975Z,4.07
2022-08-30T20:46:47.224Z,4.32
2022-08-30T20:49:14.164Z,3.97
2022-08-30T20:51:40.794Z,3.90
2022-08-30T20:54:07.326Z,4.18
2022-08-30T20:56:34.434Z,4.38
2022-08-30T20:59:02.683Z,4.18
2022-08-30T21:01:32.712Z,4.85
2022-08-30T21:03:59.719Z,4.25
2022-08-30T21:06:26.139Z,4.50
2022-08-30T21:08:52.652Z,4.15
2022-08-30T21:11:19.640Z,4.07
2022-08-30T21:13:48.262Z,4.90
2022-08-30T21:16:17.184Z,4.70
2022-08-30T21:18:48.420Z,4.32
2022-08-30T21:21:21.379Z,5.07
2022-08-30T21:23:58.883Z,5.18
2022-08-30T21:26:25.372Z,5.22
2022-08-30T21:28:53.633Z,4.07
2022-08-30T21:31:25.886Z,4.43
2022-08-30T21:33:54.375Z,4.55
2022-08-30T21:36:40.978Z,4.55
2022-08-30T21:39:08.466Z,4.57
2022-08-30T21:41:37.382Z,4.93
2022-08-30T21:44:08.001Z,4.78
2022-08-30T21:46:35.773Z,5.20
2022-08-30T21:49:04.817Z,4.43
2022-08-30T21:51:38.179Z,4.75
2022-08-30T21:54:08.653Z,4.78
2022-08-30T21:56:36.169Z,4.95
2022-08-30T21:59:04.631Z,4.80
2022-08-30T22:01:31.862Z,5.13
2022-08-30T22:04:00.519Z,4.95
2022-08-30T22:06:31.121Z,4.78
2022-08-30T22:08:58.298Z,4.93
2022-08-30T22:11:26.595Z,4.47
2022-08-30T22:13:54.358Z,5.35
2022-08-30T22:16:21.482Z,5.38
2022-08-30T22:18:48.935Z,5.10
2022-08-30T22:21:18.132Z,5.20
2022-08-30T22:23:45.327Z,5.57
2022-08-30T22:26:14.879Z,5.57
2022-08-30T22:28:41.674Z,5.78
2022-08-30T22:31:11.084Z,5.20
2022-08-30T22:33:37.720Z,5.20
2022-08-30T22:36:12.710Z,5.53
2022-08-30T22:38:40.400Z,4.95
2022-08-30T22:41:12.047Z,5.88
2022-08-30T22:43:39.313Z,5.55
2022-08-30T22:46:09.367Z,4.70
2022-08-30T22:48:37.979Z,5.57
2022-08-30T22:51:05.438Z,4.75
2022-08-30T22:53:32.608Z,4.60
2022-08-30T22:56:00.717Z,4.32
2022-08-30T22:58:27.125Z,4.68
2022-08-30T23:00:55.124Z,4.90
2022-08-30T23:03:21.926Z,4.43
2022-08-30T23:05:48.391Z,4.18
2022-08-30T23:08:14.776Z,3.90
2022-08-30T23:10:41.516Z,4.30
2022-08-30T23:13:07.898Z,3.75
2022-08-30T23:15:34.535Z,3.80
2022-08-30T23:18:00.956Z,3.33
2022-08-30T23:20:27.389Z,3.65
2022-08-30T23:22:59.482Z,3.38
2022-08-30T23:25:47.536Z,3.35
2022-08-30T23:28:38.440Z,3.80
2022-08-30T23:31:28.856Z,3.80
2022-08-30T23:34:14.090Z,3.50
2022-08-30T23:36:59.050Z,3.17
2022-08-30T23:39:43.819Z,3.03
2022-08-30T23:42:29.277Z,3.40
2022-08-30T23:45:14.177Z,3.13
2022-08-30T23:47:59.461Z,3.10
2022-08-30T23:50:44.419Z,3.13
2022-08-30T23:53:29.517Z,3.00
2022-08-30T23:56:14.709Z,3.35
2022-08-30T23:58:59.973Z,2.67
